Time;durP1;ratioP1;P1;durP2;ratioP2;P2;SDS_P1;SDS_P2;PMS_P1;PMS_P2;Temp;Humidity;BMP_temperature;BMP_pressure;BME280_temperature;BME280_humidity;BME280_pressure;Samples;Min_cycle;Max_cycle;Signal;HPM_P1;HPM_P2
2022/01/02 00:00:45;;;;;;;13.07;6.25;;;12.70;99.90;;;;;;5089707;28;20039;-83
2022/01/02 00:03:18;;;;;;;13.10;5.97;;;11.70;99.90;;;;;;5090186;28;20615;-83
2022/01/02 00:05:44;;;;;;;13.43;6.25;;;11.40;99.90;;;;;;5091405;28;20050;-84
2022/01/02 00:08:11;;;;;;;10.88;5.70;;;11.50;99.90;;;;;;5089982;28;20071;-83
2022/01/02 00:10:48;;;;;;;12.98;6.68;;;13.50;99.90;;;;;;5091334;28;20469;-84
2022/01/02 00:13:32;;;;;;;11.00;6.15;;;11.50;99.90;;;;;;5090752;28;20047;-81
2022/01/02 00:16:04;;;;;;;13.88;6.10;;;11.50;99.90;;;;;;5121492;28;20404;-83
2022/01/02 00:18:38;;;;;;;10.27;6.50;;;11.50;99.90;;;;;;5074201;28;20036;-83
2022/01/02 00:21:08;;;;;;;17.45;7.18;;;11.40;99.90;;;;;;5089805;28;20046;-83
2022/01/02 00:23:49;;;;;;;13.18;6.00;;;11.50;99.90;;;;;;5090721;28;20040;-83
2022/01/02 00:26:18;;;;;;;10.77;5.85;;;11.50;99.90;;;;;;5090826;28;20043;-82
2022/01/02 00:28:46;;;;;;;12.85;5.90;;;11.50;99.90;;;;;;5089397;28;20119;-84
2022/01/02 00:31:14;;;;;;;11.77;6.63;;;11.50;99.90;;;;;;5091932;28;20093;-83
2022/01/02 00:33:41;;;;;;;11.65;6.63;;;11.40;99.90;;;;;;5077412;28;20100;-84
2022/01/02 00:36:06;;;;;;;11.60;7.15;;;11.40;99.90;;;;;;5092826;28;20165;-84
2022/01/02 00:38:32;;;;;;;13.60;7.05;;;13.10;99.90;;;;;;5093860;28;20119;-84
2022/01/02 00:40:58;;;;;;;11.15;6.80;;;12.30;99.90;;;;;;5127724;28;20535;-84
2022/01/02 00:43:33;;;;;;;12.32;5.90;;;11.40;99.90;;;;;;5093674;28;20039;-83
2022/01/02 00:46:03;;;;;;;10.18;6.15;;;11.50;99.90;;;;;;5093555;28;20050;-84
2022/01/02 00:48:31;;;;;;;12.10;6.70;;;11.40;99.90;;;;;;5094061;28;20503;-81
2022/01/02 00:51:02;;;;;;;12.13;6.85;;;11.40;99.90;;;;;;5092744;28;20111;-81
2022/01/02 00:53:34;;;;;;;12.82;6.38;;;11.10;99.90;;;;;;5076447;28;20039;-82
2022/01/02 00:56:01;;;;;;;15.30;6.88;;;11.30;99.90;;;;;;5092843;28;20857;-82
2022/01/02 00:59:04;;;;;;;13.38;7.05;;;11.70;99.90;;;;;;5093750;28;20040;-82
2022/01/02 01:01:34;;;;;;;15.85;7.28;;;11.40;99.90;;;;;;5012979;28;20505;-81
2022/01/02 01:04:02;;;;;;;15.27;6.53;;;12.90;99.90;;;;;;5079961;28;20130;-83
2022/01/02 01:06:31;;;;;;;11.02;6.95;;;11.60;99.90;;;;;;5094042;28;20396;-82
2022/01/02 01:09:00;;;;;;;14.63;6.80;;;;;;;;;;5075555;28;20032;-82
2022/01/02 01:11:27;;;;;;;11.20;6.78;;;;;;;;;;5076119;28;20035;-82
2022/01/02 01:13:57;;;;;;;14.45;7.82;;;;;;;;;;5076952;28;20035;-82
2022/01/02 01:16:23;;;;;;;13.23;6.65;;;;;;;;;;5097177;28;20036;-82
2022/01/02 01:18:49;;;;;;;15.63;7.00;;;;;;;;;;5096682;28;20387;-81
2022/01/02 01:21:16;;;;;;;16.08;7.00;;;;;;;;;;5097135;28;20048;-83
2022/01/02 01:23:43;;;;;;;14.93;6.80;;;;;;;;;;5095025;28;20035;-83
2022/01/02 01:26:11;;;;;;;12.45;6.45;;;;;;;;;;5078677;28;20043;-81
2022/01/02 01:28:37;;;;;;;12.75;7.35;;;;;;;;;;5097157;28;20450;-82
2022/01/02 01:31:03;;;;;;;12.63;6.78;;;;;;;;;;5095556;28;20040;-80
2022/01/02 01:33:29;;;;;;;14.52;7.45;;;;;;;;;;5080169;28;20039;-79
2022/01/02 01:35:55;;;;;;;12.75;6.97;;;;;;;;;;5079172;28;20480;-80
2022/01/02 01:38:21;;;;;;;13.35;6.90;;;;;;;;;;5095269;28;20126;-80
2022/01/02 01:40:51;;;;;;;14.77;8.20;;;;;;;;;;5096947;28;20040;-79
2022/01/02 01:43:18;;;;;;;10.40;6.47;;;;;;;;;;5096698;28;20496;-79
2022/01/02 01:45:44;;;;;;;13.00;7.70;;;;;;;;;;5096516;28;20396;-80
2022/01/02 01:48:10;;;;;;;16.33;8.57;;;;;;;;;;5095568;28;20049;-80
2022/01/02 01:50:37;;;;;;;12.52;7.22;;;;;;;;;;5079944;28;20043;-81
2022/01/02 01:53:04;;;;;;;13.13;6.75;;;;;;;;;;5095464;28;20043;-80
2022/01/02 01:55:30;;;;;;;16.98;8.32;;;;;;;;;;5097027;28;20047;-80
2022/01/02 01:57:56;;;;;;;17.05;7.45;;;;;;;;;;5095880;28;20044;-80
2022/01/02 02:00:23;;;;;;;12.18;6.72;;;;;;;;;;5095987;28;20085;-81
2022/01/02 02:02:50;;;;;;;11.82;7.25;;;;;;;;;;5095610;28;20067;-81
2022/01/02 02:05:16;;;;;;;16.98;8.13;;;;;;;;;;5114644;28;20075;-79
2022/01/02 02:07:44;;;;;;;13.20;7.53;;;;;;;;;;5095739;28;20040;-79
2022/01/02 02:10:16;;;;;;;14.15;8.82;;;;;;;;;;5095774;28;20278;-80
2022/01/02 02:12:43;;;;;;;19.33;9.23;;;;;;;;;;5096321;28;20433;-80
2022/01/02 02:15:12;;;;;;;18.35;9.45;;;11.00;99.90;;;;;;5094120;28;20448;-79
2022/01/02 02:17:41;;;;;;;17.85;9.55;;;;;;;;;;5098697;28;20040;-79
2022/01/02 02:20:11;;;;;;;16.67;10.05;;;;;;;;;;5091451;28;20047;-80
2022/01/02 02:22:41;;;;;;;20.15;11.50;;;;;;;;;;5109782;28;20083;-81
2022/01/02 02:25:07;;;;;;;18.77;9.95;;;11.00;99.90;;;;;;5108656;28;20087;-82
2022/01/02 02:27:33;;;;;;;16.65;10.45;;;11.20;99.90;;;;;;5081556;28;20097;-81
2022/01/02 02:29:59;;;;;;;16.08;10.98;;;11.30;99.90;;;;;;5095461;28;20043;-82
2022/01/02 02:32:25;;;;;;;18.88;11.55;;;10.30;99.90;;;;;;5094957;28;20123;-81
2022/01/02 02:34:50;;;;;;;19.63;12.18;;;10.40;99.90;;;;;;5094181;28;20082;-79
2022/01/02 02:37:16;;;;;;;19.95;11.88;;;10.90;99.90;;;;;;5095959;28;20559;-77
2022/01/02 02:39:42;;;;;;;24.10;13.07;;;11.20;99.90;;;;;;5095805;28;20044;-76
2022/01/02 02:42:20;;;;;;;22.13;13.20;;;;;;;;;;5077747;28;20047;-76
2022/01/02 02:44:56;;;;;;;20.65;12.15;;;10.80;99.90;;;;;;5078633;28;20039;-76
2022/01/02 02:50:06;;;;;;;21.08;12.40;;;12.00;99.90;;;;;;5099321;28;20059;-74
2022/01/02 02:52:42;;;;;;;20.85;11.57;;;10.70;99.90;;;;;;5095626;28;20035;-74
2022/01/02 02:55:08;;;;;;;17.02;10.65;;;10.90;99.90;;;;;;5093540;28;20459;-74
2022/01/02 02:57:35;;;;;;;20.90;12.57;;;10.70;99.90;;;;;;5091433;28;20076;-74
2022/01/02 03:00:01;;;;;;;20.25;11.43;;;10.50;99.90;;;;;;5074576;28;20048;-76
2022/01/02 03:02:26;;;;;;;17.48;11.32;;;10.70;99.90;;;;;;5096266;28;20036;-75
2022/01/02 03:04:52;;;;;;;17.52;10.80;;;10.50;99.90;;;;;;5108288;28;20047;-76
2022/01/02 03:07:17;;;;;;;20.70;11.63;;;10.90;99.90;;;;;;5109547;28;20087;-76
2022/01/02 03:09:49;;;;;;;19.05;11.57;;;;;;;;;;5108172;28;20032;-76
2022/01/02 03:12:15;;;;;;;22.00;11.25;;;10.70;99.90;;;;;;5125764;27;20039;-76
2022/01/02 03:14:41;;;;;;;19.33;12.27;;;12.30;99.90;;;;;;5095238;28;20388;-75
2022/01/02 03:17:07;;;;;;;17.95;10.93;;;10.70;99.90;;;;;;5073548;28;20044;-75
2022/01/02 03:19:34;;;;;;;19.05;11.43;;;10.70;99.90;;;;;;5091940;28;20043;-76
2022/01/02 03:22:00;;;;;;;17.40;11.77;;;10.90;99.90;;;;;;5074133;28;20169;-76
2022/01/02 03:24:26;;;;;;;21.25;11.98;;;10.60;99.90;;;;;;5073956;28;20036;-76
2022/01/02 03:26:52;;;;;;;18.85;12.80;;;10.40;99.90;;;;;;5092972;28;20044;-77
2022/01/02 03:29:17;;;;;;;20.77;12.25;;;11.20;99.90;;;;;;5074434;28;20051;-77
2022/01/02 03:31:43;;;;;;;23.20;13.18;;;10.60;99.90;;;;;;5086993;28;20053;-77
2022/01/02 03:34:09;;;;;;;21.10;12.82;;;10.60;99.90;;;;;;5070721;28;20048;-76
2022/01/02 03:36:37;;;;;;;22.65;13.68;;;10.60;99.90;;;;;;5071145;28;20564;-76
2022/01/02 03:39:03;;;;;;;21.75;10.95;;;10.60;99.90;;;;;;5069275;28;20094;-76
2022/01/02 03:41:29;;;;;;;23.80;11.52;;;10.60;99.90;;;;;;5084702;28;20036;-76
2022/01/02 03:43:55;;;;;;;22.30;11.85;;;10.60;99.90;;;;;;5090643;28;20051;-77
2022/01/02 03:46:20;;;;;;;30.30;13.52;;;11.20;99.90;;;;;;5090359;28;20047;-77
2022/01/02 03:48:46;;;;;;;20.05;11.80;;;12.70;99.90;;;;;;5091057;28;20058;-76
2022/01/02 03:51:12;;;;;;;22.98;13.07;;;10.30;99.90;;;;;;5090931;28;20040;-75
2022/01/02 03:53:37;;;;;;;21.25;11.02;;;10.60;99.90;;;;;;5090307;28;20127;-74
2022/01/02 03:56:08;;;;;;;20.45;12.85;;;10.70;99.90;;;;;;5081057;28;20039;-75
2022/01/02 03:58:34;;;;;;;20.58;10.60;;;12.20;99.90;;;;;;5070342;28;20067;-75
2022/01/02 04:00:59;;;;;;;20.95;10.70;;;10.70;99.90;;;;;;5053538;28;20045;-74
2022/01/02 04:03:25;;;;;;;25.88;10.65;;;10.70;99.90;;;;;;5071216;28;20040;-74
2022/01/02 04:05:50;;;;;;;20.55;10.75;;;10.70;99.90;;;;;;5069630;28;20512;-74
2022/01/02 04:08:16;;;;;;;22.20;9.90;;;10.70;99.90;;;;;;5070917;28;20056;-74
2022/01/02 04:10:42;;;;;;;21.70;10.88;;;10.70;99.90;;;;;;5111218;28;20427;-75
2022/01/02 04:13:07;;;;;;;20.83;11.52;;;10.70;99.90;;;;;;5073081;28;20032;-74
2022/01/02 04:15:34;;;;;;;18.05;10.27;;;10.70;99.90;;;;;;5090819;28;20164;-76
2022/01/02 04:17:59;;;;;;;19.52;11.73;;;10.70;99.90;;;;;;5090754;28;20385;-75
2022/01/02 04:20:25;;;;;;;17.70;10.32;;;10.30;99.90;;;;;;5091363;28;20055;-75
2022/01/02 04:22:51;;;;;;;22.67;10.70;;;10.30;99.90;;;;;;5090371;28;20051;-75
2022/01/02 04:25:16;;;;;;;19.20;9.88;;;10.70;99.90;;;;;;5089157;28;20052;-75
2022/01/02 04:27:42;;;;;;;19.27;10.25;;;10.00;99.90;;;;;;5073158;28;20046;-75
2022/01/02 04:30:11;;;;;;;17.17;10.55;;;10.70;99.90;;;;;;5090499;28;20132;-76
2022/01/02 04:32:36;;;;;;;20.90;11.05;;;10.70;99.90;;;;;;5090711;28;20179;-77
2022/01/02 04:35:03;;;;;;;20.20;11.85;;;11.50;99.90;;;;;;5089338;28;20073;-77
2022/01/02 04:37:29;;;;;;;17.65;10.48;;;10.70;99.90;;;;;;5091029;28;20093;-77
2022/01/02 04:39:54;;;;;;;20.02;10.25;;;11.70;99.90;;;;;;5088575;28;20050;-76
2022/01/02 04:42:20;;;;;;;19.63;11.30;;;10.40;99.90;;;;;;5089677;28;20119;-76
2022/01/02 04:44:46;;;;;;;18.08;12.23;;;11.70;99.90;;;;;;5090168;28;20404;-77
2022/01/02 04:47:11;;;;;;;25.42;13.48;;;10.70;99.90;;;;;;5090318;28;20039;-76
2022/01/02 04:49:37;;;;;;;24.08;11.82;;;10.60;99.90;;;;;;5092009;28;20043;-77
2022/01/02 04:52:03;;;;;;;18.17;11.73;;;10.60;99.90;;;;;;5094066;28;20048;-77
2022/01/02 04:54:28;;;;;;;22.33;12.15;;;10.70;99.90;;;;;;5088879;28;20439;-76
2022/01/02 04:56:54;;;;;;;24.73;13.05;;;10.60;99.90;;;;;;5092224;28;20123;-76
2022/01/02 04:59:20;;;;;;;23.27;12.40;;;10.40;99.90;;;;;;5094377;28;20047;-76
2022/01/02 05:01:48;;;;;;;20.85;11.48;;;12.00;99.90;;;;;;5094149;28;20044;-76
2022/01/02 05:04:14;;;;;;;21.50;12.48;;;10.50;99.90;;;;;;5092698;28;20036;-76
2022/01/02 05:06:39;;;;;;;24.70;12.90;;;10.20;99.90;;;;;;5094227;28;20048;-75
2022/01/02 05:09:05;;;;;;;24.88;12.23;;;10.60;99.90;;;;;;5075874;28;20048;-75
2022/01/02 05:11:31;;;;;;;25.08;13.00;;;10.20;99.90;;;;;;5093736;28;20040;-76
2022/01/02 05:13:57;;;;;;;25.50;12.75;;;10.40;99.90;;;;;;5093481;28;20051;-77
2022/01/02 05:16:22;;;;;;;18.83;11.57;;;10.40;99.90;;;;;;5093245;28;20043;-77
2022/01/02 05:18:48;;;;;;;18.85;11.63;;;10.70;99.90;;;;;;5093026;28;20036;-78
2022/01/02 05:21:14;;;;;;;23.10;11.75;;;10.30;99.90;;;;;;5093597;28;20396;-78
2022/01/02 05:23:41;;;;;;;23.10;12.15;;;11.90;99.90;;;;;;5093005;28;20093;-78
2022/01/02 05:26:06;;;;;;;26.58;11.88;;;12.00;99.90;;;;;;5078630;28;20044;-78
2022/01/02 05:28:32;;;;;;;23.17;11.55;;;12.30;99.90;;;;;;5056655;28;20036;-77
2022/01/02 05:30:57;;;;;;;25.45;10.80;;;10.80;99.90;;;;;;5055487;28;20086;-76
2022/01/02 05:33:23;;;;;;;24.83;10.40;;;10.20;99.90;;;;;;5073501;28;20057;-77
2022/01/02 05:35:49;;;;;;;23.17;11.43;;;10.80;99.90;;;;;;5073285;28;20389;-77
2022/01/02 05:38:15;;;;;;;21.38;11.23;;;12.90;99.90;;;;;;5072481;28;20389;-77
2022/01/02 05:40:41;;;;;;;23.65;11.23;;;10.30;99.90;;;;;;5090281;28;20052;-77
2022/01/02 05:43:08;;;;;;;19.23;10.60;;;;;;;;;;5092946;28;20568;-77
2022/01/02 05:45:34;;;;;;;19.30;9.88;;;10.80;99.90;;;;;;5092927;28;20384;-77
2022/01/02 05:48:05;;;;;;;19.70;10.50;;;10.70;99.90;;;;;;5092772;28;20040;-77
2022/01/02 05:50:34;;;;;;;23.00;9.70;;;10.90;99.90;;;;;;5093386;28;20493;-76
2022/01/02 05:53:00;;;;;;;18.70;9.82;;;10.90;99.90;;;;;;5091240;28;20094;-77
2022/01/02 05:55:25;;;;;;;19.85;9.85;;;10.60;99.90;;;;;;5064117;28;20040;-77
2022/01/02 05:57:51;;;;;;;23.67;10.38;;;10.50;99.90;;;;;;5106577;28;20048;-76
2022/01/02 06:00:17;;;;;;;22.98;10.48;;;12.30;99.90;;;;;;5080497;28;20032;-75
2022/01/02 06:02:42;;;;;;;24.50;11.75;;;12.00;99.90;;;;;;5093310;28;20043;-76
2022/01/02 06:05:08;;;;;;;19.42;9.98;;;10.70;99.90;;;;;;5092483;28;20032;-76
2022/01/02 06:07:34;;;;;;;20.00;10.52;;;11.00;99.90;;;;;;5092413;28;20489;-76
2022/01/02 06:10:04;;;;;;;23.83;10.80;;;10.60;99.90;;;;;;5075465;28;20131;-76
2022/01/02 06:12:30;;;;;;;19.17;9.70;;;11.00;99.90;;;;;;5075149;28;20385;-76
2022/01/02 06:14:55;;;;;;;19.13;8.60;;;11.10;99.90;;;;;;5091469;28;20040;-76
2022/01/02 06:17:21;;;;;;;26.08;9.75;;;11.00;99.90;;;;;;5075860;28;20040;-76
2022/01/02 06:19:47;;;;;;;17.17;9.32;;;11.00;99.90;;;;;;5091617;28;20040;-75
2022/01/02 06:22:12;;;;;;;21.13;9.48;;;11.00;99.90;;;;;;5092718;28;20144;-77
2022/01/02 06:24:38;;;;;;;18.20;9.30;;;12.70;99.90;;;;;;5091637;28;20047;-76
2022/01/02 06:27:04;;;;;;;16.00;8.00;;;11.50;99.90;;;;;;5074448;28;20036;-76
2022/01/02 06:29:29;;;;;;;20.65;8.48;;;11.10;99.90;;;;;;5092416;28;20043;-77
2022/01/02 06:31:57;;;;;;;16.58;7.50;;;10.80;99.90;;;;;;5091945;28;20131;-77
2022/01/02 06:34:23;;;;;;;13.07;6.85;;;12.00;99.90;;;;;;5091731;28;20040;-78
2022/01/02 06:36:48;;;;;;;14.57;7.45;;;12.60;99.90;;;;;;5092237;28;20389;-77
2022/01/02 06:39:14;;;;;;;17.65;6.65;;;12.70;99.90;;;;;;5091310;28;20044;-77
2022/01/02 06:41:39;;;;;;;13.07;6.63;;;11.40;99.90;;;;;;5091425;28;20044;-78
2022/01/02 06:44:05;;;;;;;13.38;5.95;;;11.20;99.90;;;;;;5126149;27;20039;-77
2022/01/02 06:46:31;;;;;;;13.45;5.80;;;11.40;99.90;;;;;;5092330;28;20508;-78
2022/01/02 06:48:56;;;;;;;13.10;5.93;;;11.40;99.90;;;;;;5092211;28;20381;-78
2022/01/02 06:51:22;;;;;;;13.32;5.43;;;11.10;99.90;;;;;;5092087;28;20117;-77
2022/01/02 06:53:48;;;;;;;11.60;5.18;;;12.30;99.90;;;;;;5091078;28;20036;-75
2022/01/02 06:56:13;;;;;;;15.38;5.50;;;13.70;99.90;;;;;;5059285;28;20048;-75
2022/01/02 06:58:40;;;;;;;15.40;4.90;;;11.10;99.90;;;;;;5071823;28;20063;-76
2022/01/02 07:01:06;;;;;;;12.48;5.25;;;13.20;99.90;;;;;;5071058;28;20055;-77
2022/01/02 07:03:33;;;;;;;14.73;4.85;;;12.00;99.90;;;;;;5087936;28;20051;-77
2022/01/02 07:05:59;;;;;;;10.23;4.68;;;11.50;99.90;;;;;;5071135;28;20508;-76
2022/01/02 07:08:25;;;;;;;14.40;5.15;;;11.60;99.90;;;;;;5071376;28;20115;-77
2022/01/02 07:10:50;;;;;;;13.73;5.10;;;11.80;99.90;;;;;;5087347;28;20441;-78
2022/01/02 07:13:16;;;;;;;11.65;4.30;;;;;;;;;;5087613;28;20063;-77
2022/01/02 07:15:42;;;;;;;12.43;4.82;;;11.80;99.90;;;;;;5073852;28;20553;-80
2022/01/02 07:18:07;;;;;;;11.88;4.18;;;11.60;99.90;;;;;;5080525;28;20048;-78
2022/01/02 07:20:33;;;;;;;15.30;4.47;;;13.30;99.90;;;;;;5071611;28;20052;-81
2022/01/02 07:22:59;;;;;;;12.48;4.03;;;11.60;99.90;;;;;;5075593;28;20044;-77
2022/01/02 07:25:24;;;;;;;12.88;4.50;;;12.60;99.90;;;;;;5085395;28;20366;-74
2022/01/02 07:27:50;;;;;;;12.10;4.78;;;11.60;99.90;;;;;;5070974;28;20071;-70
2022/01/02 07:30:15;;;;;;;13.20;3.80;;;11.70;99.90;;;;;;5070390;28;20472;-69
2022/01/02 07:32:43;;;;;;;7.07;3.90;;;12.00;99.90;;;;;;5071010;28;20056;-69
2022/01/02 07:35:09;;;;;;;12.48;4.45;;;11.80;99.90;;;;;;5070592;28;20072;-69
2022/01/02 07:37:35;;;;;;;12.18;4.45;;;13.00;99.90;;;;;;5088119;28;20079;-70
2022/01/02 07:40:03;;;;;;;10.45;4.40;;;12.10;99.90;;;;;;5085335;28;20044;-72
2022/01/02 07:42:28;;;;;;;15.13;5.00;;;13.10;99.90;;;;;;5104867;28;20531;-70
2022/01/02 07:44:54;;;;;;;10.73;3.97;;;12.10;99.90;;;;;;5103549;28;20036;-74
2022/01/02 07:47:19;;;;;;;10.50;4.90;;;12.50;99.90;;;;;;5070990;28;20051;-79
2022/01/02 07:49:45;;;;;;;13.85;4.97;;;12.30;99.90;;;;;;5104815;28;20081;-74
2022/01/02 07:52:11;;;;;;;9.52;3.67;;;13.10;99.90;;;;;;5106946;28;20036;-70
2022/01/02 07:54:38;;;;;;;12.07;4.22;;;12.20;99.90;;;;;;5056753;28;20040;-71
2022/01/02 07:57:04;;;;;;;8.93;3.83;;;12.70;99.90;;;;;;5070191;28;20064;-73
2022/01/02 07:59:30;;;;;;;17.20;5.32;;;11.80;99.90;;;;;;5070011;28;20048;-68
2022/01/02 08:01:55;;;;;;;9.60;4.47;;;12.80;99.90;;;;;;5071307;28;20392;-74
2022/01/02 08:04:21;;;;;;;10.90;4.55;;;12.50;99.90;;;;;;5054468;28;20037;-73
2022/01/02 08:06:47;;;;;;;9.30;4.50;;;11.70;99.90;;;;;;5069626;28;20378;-74
2022/01/02 08:09:12;;;;;;;8.68;4.35;;;12.70;99.90;;;;;;5087099;28;20059;-73
2022/01/02 08:11:38;;;;;;;12.52;5.40;;;12.20;99.90;;;;;;5092349;28;20057;-73
2022/01/02 08:14:04;;;;;;;11.48;5.70;;;12.10;99.90;;;;;;5090957;28;20040;-74
2022/01/02 08:16:29;;;;;;;8.63;5.53;;;11.50;99.90;;;;;;5073983;28;20036;-73
2022/01/02 08:18:55;;;;;;;11.05;5.90;;;12.00;99.90;;;;;;5087786;28;20043;-74
2022/01/02 08:21:20;;;;;;;14.15;6.82;;;11.50;99.90;;;;;;5091180;28;20113;-73
2022/01/02 08:23:46;;;;;;;11.20;6.28;;;11.40;99.90;;;;;;5091437;28;20430;-74
2022/01/02 08:26:12;;;;;;;13.25;6.50;;;11.40;99.90;;;;;;5065206;28;20044;-74
2022/01/02 08:28:37;;;;;;;15.50;7.22;;;11.40;99.90;;;;;;5074732;28;20390;-74
2022/01/02 08:31:03;;;;;;;11.20;6.18;;;11.20;99.90;;;;;;5074585;28;20037;-74
2022/01/02 08:33:29;;;;;;;11.88;6.88;;;11.30;99.90;;;;;;5077537;28;20047;-75
2022/01/02 08:35:55;;;;;;;10.13;5.32;;;11.40;99.90;;;;;;5077373;28;20044;-75
2022/01/02 08:38:20;;;;;;;10.88;5.90;;;12.60;99.90;;;;;;5109417;28;20039;-74
2022/01/02 08:40:46;;;;;;;11.63;6.93;;;11.30;99.90;;;;;;5097021;28;20043;-75
2022/01/02 08:43:12;;;;;;;13.30;6.60;;;11.50;99.90;;;;;;5097780;28;20391;-74
2022/01/02 08:45:38;;;;;;;14.40;5.82;;;11.40;99.90;;;;;;5098219;28;20411;-74
2022/01/02 08:48:04;;;;;;;12.18;6.32;;;11.40;99.90;;;;;;5096146;28;20050;-73
2022/01/02 08:50:30;;;;;;;13.50;7.15;;;11.30;99.90;;;;;;5094963;28;20373;-74
2022/01/02 08:52:56;;;;;;;8.43;5.80;;;11.20;99.90;;;;;;5081015;28;20085;-74
2022/01/02 08:55:22;;;;;;;8.65;5.40;;;11.10;99.90;;;;;;5093839;28;20039;-73
2022/01/02 08:57:47;;;;;;;10.32;6.38;;;11.30;99.90;;;;;;5074924;28;20548;-74
2022/01/02 09:00:14;;;;;;;12.27;6.45;;;11.10;99.90;;;;;;5091510;28;20844;-73
2022/01/02 09:02:40;;;;;;;10.63;5.45;;;11.20;99.90;;;;;;5100081;28;20047;-74
2022/01/02 09:05:07;;;;;;;11.80;6.40;;;11.20;99.90;;;;;;5128540;27;20088;-75
2022/01/02 09:07:32;;;;;;;9.63;6.25;;;11.20;99.90;;;;;;5092941;28;20047;-75
2022/01/02 09:09:58;;;;;;;8.25;6.38;;;11.20;99.90;;;;;;5092961;28;20492;-75
2022/01/02 09:12:24;;;;;;;9.93;6.68;;;10.30;99.90;;;;;;5094055;28;20050;-73
2022/01/02 09:14:50;;;;;;;12.23;8.25;;;11.30;99.90;;;;;;5094779;28;20432;-74
2022/01/02 09:17:15;;;;;;;12.60;7.85;;;10.80;99.90;;;;;;5092877;28;20040;-74
2022/01/02 09:19:41;;;;;;;10.95;7.60;;;11.10;99.90;;;;;;5057722;28;20046;-74
2022/01/02 09:22:07;;;;;;;15.45;8.68;;;11.10;99.90;;;;;;5073052;28;20549;-74
2022/01/02 09:24:32;;;;;;;11.55;8.82;;;11.10;99.90;;;;;;5091353;28;20047;-74
2022/01/02 09:26:58;;;;;;;11.15;7.13;;;11.20;99.90;;;;;;5080459;28;20456;-74
2022/01/02 09:29:24;;;;;;;11.90;7.57;;;11.00;99.90;;;;;;5093569;28;20155;-72
2022/01/02 09:31:50;;;;;;;10.82;7.07;;;12.20;99.90;;;;;;5093102;28;20052;-72
2022/01/02 09:34:23;;;;;;;11.23;6.28;;;;;;;;;;5090532;28;20091;-72
2022/01/02 09:36:50;;;;;;;12.15;7.10;;;;;;;;;;5091836;28;20417;-72
2022/01/02 09:39:18;;;;;;;11.52;7.15;;;;;;;;;;5100372;28;20040;-72
2022/01/02 09:41:43;;;;;;;11.68;6.97;;;11.00;99.90;;;;;;5090178;28;20500;-72
2022/01/02 09:44:09;;;;;;;13.25;7.13;;;10.80;99.90;;;;;;5092016;28;20043;-72
2022/01/02 09:46:37;;;;;;;12.68;7.45;;;10.90;99.90;;;;;;5094346;28;20046;-72
2022/01/02 09:49:03;;;;;;;10.93;7.20;;;11.00;99.90;;;;;;5079638;28;20043;-72
2022/01/02 09:51:32;;;;;;;13.25;7.53;;;;;;;;;;5072877;28;20047;-71
2022/01/02 09:53:58;;;;;;;13.05;7.90;;;;;;;;;;5073360;28;20167;-71
2022/01/02 09:56:24;;;;;;;14.85;8.10;;;;;;;;;;5093708;28;20159;-71
2022/01/02 09:58:51;;;;;;;12.23;7.13;;;;;;;;;;5075679;28;20079;-72
2022/01/02 10:01:19;;;;;;;12.20;8.25;;;;;;;;;;5076694;28;20130;-72
2022/01/02 10:03:53;;;;;;;13.25;8.23;;;;;;;;;;5076909;28;20039;-71
2022/01/02 10:06:19;;;;;;;13.80;8.52;;;;;;;;;;5092023;28;20104;-70
2022/01/02 10:08:46;;;;;;;10.45;7.15;;;;;;;;;;5091300;28;20101;-70
2022/01/02 10:11:23;;;;;;;13.27;8.82;;;;;;;;;;5092448;28;20099;-71
2022/01/02 10:13:49;;;;;;;11.88;8.23;;;;;;;;;;5093226;28;20433;-74
2022/01/02 10:16:19;;;;;;;14.02;8.25;;;;;;;;;;5091171;28;20077;-74
2022/01/02 10:18:45;;;;;;;15.32;8.38;;;;;;;;;;5080457;28;20040;-74
2022/01/02 10:21:11;;;;;;;17.38;9.60;;;;;;;;;;5093659;28;20100;-75
2022/01/02 10:23:37;;;;;;;13.88;8.10;;;;;;;;;;5093394;28;20039;-74
2022/01/02 10:26:04;;;;;;;12.32;7.68;;;;;;;;;;5091810;28;20055;-75
2022/01/02 10:28:35;;;;;;;14.43;7.93;;;;;;;;;;5093199;28;20119;-75
2022/01/02 10:31:07;;;;;;;17.33;8.02;;;;;;;;;;5090541;28;20551;-72
2022/01/02 10:33:56;;;;;;;14.75;6.45;;;;;;;;;;5089970;28;20109;-76
2022/01/02 10:36:25;;;;;;;16.02;7.00;;;;;;;;;;5084477;28;20046;-77
2022/01/02 10:39:01;;;;;;;19.42;6.88;;;;;;;;;;5093092;28;20047;-72
2022/01/02 10:41:33;;;;;;;13.57;6.43;;;;;;;;;;5088227;28;20036;-73
2022/01/02 10:44:23;;;;;;;19.13;6.55;;;;;;;;;;5073456;28;20048;-74
2022/01/02 10:47:08;;;;;;;13.73;6.80;;;;;;;;;;5059835;28;20947;-74
2022/01/02 10:49:49;;;;;;;18.25;6.70;;;;;;;;;;5080622;28;20035;-74
2022/01/02 10:52:35;;;;;;;18.70;6.60;;;;;;;;;;5076731;28;20097;-77
2022/01/02 10:55:13;;;;;;;20.60;6.75;;;;;;;;;;5093284;28;20044;-76
2022/01/02 10:57:42;;;;;;;13.00;6.63;;;;;;;;;;5078183;28;20047;-74
2022/01/02 11:00:08;;;;;;;24.27;7.22;;;;;;;;;;5092203;28;20044;-75
2022/01/02 11:02:35;;;;;;;22.52;6.45;;;;;;;;;;5079736;28;20127;-73
2022/01/02 11:05:06;;;;;;;19.65;6.25;;;;;;;;;;5121999;27;20361;-76
2022/01/02 11:07:41;;;;;;;13.52;5.70;;;;;;;;;;5094565;28;20524;-74
2022/01/02 11:10:07;;;;;;;17.05;6.18;;;11.60;99.90;;;;;;5094882;28;20122;-74
2022/01/02 11:12:33;;;;;;;22.17;6.15;;;11.60;99.90;;;;;;5078711;28;20400;-74
2022/01/02 11:15:01;;;;;;;12.77;5.25;;;11.80;99.90;;;;;;5093875;28;20123;-74
2022/01/02 11:17:27;;;;;;;15.30;5.45;;;11.50;99.90;;;;;;5094582;28;20478;-73
2022/01/02 11:19:53;;;;;;;22.55;6.63;;;13.00;99.90;;;;;;5077613;28;20464;-75
2022/01/02 11:22:57;;;;;;;17.35;5.75;;;12.10;99.90;;;;;;5094230;28;20067;-76
2022/01/02 11:25:41;;;;;;;18.83;5.97;;;11.70;99.90;;;;;;5088090;28;20044;-75
2022/01/02 11:28:31;;;;;;;14.73;5.30;;;11.60;99.90;;;;;;5094231;28;20510;-75
2022/01/02 11:30:57;;;;;;;14.15;6.15;;;11.60;99.90;;;;;;5076486;28;20403;-74
2022/01/02 11:33:34;;;;;;;19.38;6.40;;;12.20;99.90;;;;;;5113033;28;20052;-73
2022/01/02 11:36:20;;;;;;;19.20;6.05;;;12.20;99.90;;;;;;5093520;28;20043;-73
2022/01/02 11:39:09;;;;;;;23.27;7.53;;;12.30;99.90;;;;;;5094749;28;20071;-74
2022/01/02 11:41:37;;;;;;;20.85;5.97;;;11.50;99.90;;;;;;5094659;28;20484;-72
2022/01/02 11:44:05;;;;;;;19.33;5.57;;;12.90;99.90;;;;;;5111732;28;20047;-73
2022/01/02 11:46:45;;;;;;;18.08;6.15;;;11.70;99.90;;;;;;5094452;28;20047;-72
2022/01/02 11:49:15;;;;;;;18.65;5.20;;;12.10;99.90;;;;;;5094406;28;20126;-74
2022/01/02 11:51:47;;;;;;;17.42;5.72;;;11.60;99.90;;;;;;5093693;28;20480;-74
2022/01/02 11:54:28;;;;;;;18.10;5.22;;;11.60;99.90;;;;;;5093754;28;20079;-74
2022/01/02 11:56:59;;;;;;;15.50;5.95;;;11.50;99.90;;;;;;5093232;28;20035;-75
2022/01/02 11:59:40;;;;;;;24.88;5.75;;;11.50;99.90;;;;;;5093489;28;20040;-79
2022/01/02 12:02:21;;;;;;;19.00;4.95;;;11.50;99.90;;;;;;5093852;28;20043;-77
2022/01/02 12:04:59;;;;;;;26.65;7.22;;;11.70;99.90;;;;;;5094085;28;20115;-74
2022/01/02 12:07:37;;;;;;;18.00;5.32;;;13.00;99.90;;;;;;5074311;28;20131;-75
2022/01/02 12:10:17;;;;;;;17.05;4.32;;;11.70;99.90;;;;;;5091086;28;20100;-73
2022/01/02 12:13:20;;;;;;;16.45;5.28;;;11.70;99.90;;;;;;5093802;28;20093;-75
2022/01/02 12:15:46;;;;;;;12.48;4.57;;;11.70;99.90;;;;;;5093956;28;20031;-73
2022/01/02 12:18:41;;;;;;;12.60;4.00;;;12.80;99.90;;;;;;5093082;28;20515;-75
2022/01/02 12:21:07;;;;;;;20.08;5.03;;;11.70;99.90;;;;;;5092915;28;20048;-74
2022/01/02 12:23:36;;;;;;;19.20;4.93;;;12.10;99.90;;;;;;5076732;28;20044;-75
2022/01/02 12:26:04;;;;;;;17.58;4.53;;;11.80;99.90;;;;;;5092416;28;20079;-76
2022/01/02 12:29:01;;;;;;;18.98;4.00;;;11.90;99.90;;;;;;5093333;28;20097;-74
2022/01/02 12:31:27;;;;;;;13.18;4.43;;;11.80;99.90;;;;;;5084999;28;20127;-74
2022/01/02 12:33:54;;;;;;;22.60;4.38;;;11.60;99.90;;;;;;5090810;28;20056;-74
2022/01/02 12:36:21;;;;;;;15.05;3.63;;;11.70;99.90;;;;;;5093188;28;20042;-73
2022/01/02 12:38:58;;;;;;;18.73;4.53;;;11.60;99.90;;;;;;5088594;28;20043;-76
2022/01/02 12:41:27;;;;;;;17.73;4.68;;;12.60;99.90;;;;;;5091734;28;20100;-72
2022/01/02 12:44:15;;;;;;;22.45;5.45;;;11.90;99.90;;;;;;5078784;28;20070;-77
2022/01/02 12:46:45;;;;;;;15.23;3.97;;;;;;;;;;5073986;28;20044;-73
2022/01/02 12:49:16;;;;;;;18.13;5.07;;;;;;;;;;5091080;28;20055;-73
2022/01/02 12:51:43;;;;;;;12.68;3.33;;;;;;;;;;5081906;28;20567;-75
2022/01/02 12:54:10;;;;;;;14.05;3.65;;;;;;;;;;5089788;28;20468;-77
2022/01/02 12:56:41;;;;;;;19.30;5.63;;;;;;;;;;5075437;28;20143;-76
2022/01/02 12:59:20;;;;;;;16.80;3.90;;;;;;;;;;5087128;28;20046;-73
2022/01/02 13:01:54;;;;;;;14.40;4.10;;;;;;;;;;5072590;28;20480;-74
2022/01/02 13:04:24;;;;;;;13.15;3.65;;;;;;;;;;5090437;28;20048;-73
2022/01/02 13:06:51;;;;;;;10.38;3.60;;;;;;;;;;5073560;28;20036;-72
2022/01/02 13:09:24;;;;;;;14.82;3.13;;;;;;;;;;5092512;28;20039;-73